Time;durP1;ratioP1;P1;durP2;ratioP2;P2;SDS_P1;SDS_P2;PMS_P1;PMS_P2;Temp;Humidity;BMP_temperature;BMP_pressure;BME280_temperature;BME280_humidity;BME280_pressure;Samples;Min_cycle;Max_cycle;Signal;HPM_P1;HPM_P2
2023/07/31 00:00:15;;;;;;;2.15;1.60;;;;;;;21.91;66.35;98655.81;4995930;28;104384;-65
2023/07/31 00:02:44;;;;;;;1.63;1.17;;;;;;;22.62;64.82;98650.81;4994608;28;103181;-65
2023/07/31 00:05:12;;;;;;;3.28;1.58;;;;;;;22.35;64.09;98650.44;5001095;28;102631;-65
2023/07/31 00:07:41;;;;;;;3.60;1.50;;;;;;;22.63;63.97;98649.75;4997851;28;102965;-65
2023/07/31 00:10:10;;;;;;;2.17;1.40;;;;;;;22.53;63.95;98642.84;4996500;28;104100;-65
2023/07/31 00:12:40;;;;;;;2.38;1.40;;;;;;;22.26;64.57;98640.78;4995420;28;103276;-65
2023/07/31 00:15:11;;;;;;;2.10;1.38;;;;;;;22.62;64.25;98656.19;4997413;28;102677;-65
2023/07/31 00:17:39;;;;;;;2.35;1.50;;;;;;;22.63;63.77;98649.75;4998437;28;102804;-65
2023/07/31 00:20:08;;;;;;;1.38;1.20;;;;;;;22.86;63.50;98648.63;4996320;28;103360;-65
2023/07/31 00:22:37;;;;;;;1.40;1.23;;;;;;;22.90;63.34;98658.03;4998458;28;103243;-65
2023/07/31 00:25:06;;;;;;;1.77;1.30;;;;;;;23.03;63.05;98652.78;4994664;28;103019;-65
2023/07/31 00:27:34;;;;;;;2.60;1.35;;;;;;;22.84;63.49;98648.00;4997913;28;104050;-65
2023/07/31 00:30:03;;;;;;;2.70;1.53;;;;;;;22.82;63.31;98651.91;4995926;28;103334;-65
2023/07/31 00:32:34;;;;;;;3.00;1.30;;;;;;;22.89;63.25;98648.25;4994975;28;104181;-65
2023/07/31 00:35:03;;;;;;;2.08;1.13;;;;;;;22.83;63.94;98643.63;5031152;27;103083;-66
2023/07/31 00:37:31;;;;;;;2.70;1.60;;;;;;;22.78;64.34;98656.00;5001247;28;104118;-67
2023/07/31 00:40:00;;;;;;;2.38;1.30;;;;;;;22.79;64.07;98657.69;5000891;28;103306;-67
2023/07/31 00:42:28;;;;;;;2.05;1.40;;;;;;;22.81;63.75;98655.63;4997976;28;104134;-66
2023/07/31 00:44:56;;;;;;;3.85;1.50;;;;;;;22.35;64.58;98655.84;4997735;28;102788;-66
2023/07/31 00:47:24;;;;;;;3.55;1.77;;;;;;;21.70;67.76;98660.19;4998600;28;103103;-64
2023/07/31 00:49:55;;;;;;;4.53;1.85;;;;;;;21.78;68.06;98657.44;5001499;28;104142;-63
2023/07/31 00:52:23;;;;;;;2.20;1.60;;;;;;;21.87;67.78;98656.34;4992896;28;103146;-61
2023/07/31 00:54:52;;;;;;;3.95;1.95;;;;;;;21.89;67.60;98657.03;4996989;28;102975;-62
2023/07/31 00:57:20;;;;;;;1.20;1.10;;;;;;;22.08;67.09;98652.97;4996603;28;104591;-60
2023/07/31 00:59:49;;;;;;;1.42;1.17;;;;;;;22.25;66.04;98649.91;4996170;28;103197;-61
2023/07/31 01:02:17;;;;;;;1.85;1.55;;;;;;;22.41;65.72;98649.72;4992929;28;103316;-61
2023/07/31 01:04:46;;;;;;;2.33;1.50;;;;;;;22.46;66.39;98649.97;4989756;28;102758;-62
2023/07/31 01:07:22;;;;;;;1.10;1.00;;;;;;;22.53;66.29;98647.38;4996799;28;104020;-61
2023/07/31 01:09:58;;;;;;;3.28;1.52;;;;;;;22.36;67.08;98656.66;4993323;28;104413;-61
2023/07/31 01:12:31;;;;;;;3.08;1.70;;;;;;;21.72;69.33;98652.78;4992106;28;104435;-61
2023/07/31 01:15:04;;;;;;;3.53;1.83;;;;;;;21.66;68.63;98642.75;4993955;28;103101;-59
2023/07/31 01:17:32;;;;;;;3.47;1.45;;;;;;;21.84;67.80;98632.47;4994018;28;103413;-59
2023/07/31 01:20:03;;;;;;;3.97;1.40;;;;;;;21.99;67.34;98638.75;4993354;28;103817;-59
2023/07/31 01:22:55;;;;;;;3.25;1.70;;;;;;;21.85;67.55;98640.38;4994865;28;103321;-59
2023/07/31 01:25:40;;;;;;;3.70;1.55;;;;;;;21.51;68.27;98637.34;5027410;27;102725;-60
2023/07/31 01:28:14;;;;;;;2.10;1.40;;;;;;;21.88;67.96;98641.91;4996593;28;103907;-59
2023/07/31 01:30:49;;;;;;;3.05;1.40;;;;;;;22.10;66.98;98624.84;4991498;28;104168;-60
2023/07/31 01:33:17;;;;;;;3.22;1.50;;;;;;;22.10;66.48;98622.16;4995627;28;104027;-59
2023/07/31 01:35:49;;;;;;;3.03;1.60;;;;;;;21.42;69.44;98626.84;4992824;28;102670;-60
2023/07/31 01:38:21;;;;;;;3.13;1.35;;;;;;;21.89;67.33;98617.50;4998092;28;102734;-59
2023/07/31 01:40:52;;;;;;;1.50;1.20;;;;;;;21.95;67.43;98607.88;4990740;28;104222;-59
2023/07/31 01:43:24;;;;;;;4.32;1.55;;;;;;;21.15;69.70;98614.81;4995994;28;104797;-59
2023/07/31 01:45:52;;;;;;;3.97;2.00;;;;;;;20.98;70.76;98610.53;4993188;28;104795;-60
2023/07/31 01:48:20;;;;;;;4.07;1.73;;;;;;;21.45;69.05;98613.03;5007628;27;102791;-59
2023/07/31 01:50:51;;;;;;;3.97;1.52;;;;;;;20.87;71.70;98608.25;4996771;28;104538;-59
2023/07/31 01:53:19;;;;;;;2.13;1.60;;;;;;;20.99;71.33;98615.75;4995805;28;103173;-59
2023/07/31 01:55:49;;;;;;;2.00;1.40;;;;;;;21.12;70.97;98613.31;4995944;28;102759;-59
2023/07/31 01:58:17;;;;;;;2.90;1.60;;;;;;;21.37;69.15;98609.41;4997982;28;103965;-59
2023/07/31 02:00:50;;;;;;;2.93;1.50;;;;;;;21.09;70.73;98605.59;4996635;28;103498;-59
2023/07/31 02:03:18;;;;;;;3.15;1.50;;;;;;;21.38;69.80;98605.72;4995370;28;104231;-60
2023/07/31 02:05:47;;;;;;;2.35;1.42;;;;;;;21.52;69.09;98600.56;4997045;28;102613;-59
2023/07/31 02:08:16;;;;;;;2.53;1.60;;;;;;;21.31;69.47;98593.16;4999153;28;102779;-59
2023/07/31 02:10:44;;;;;;;4.13;1.90;;;;;;;21.06;70.98;98588.97;4995837;28;104459;-59
2023/07/31 02:13:12;;;;;;;2.17;1.33;;;;;;;21.58;68.93;98597.97;4997188;28;103263;-59
2023/07/31 02:15:40;;;;;;;3.78;1.58;;;;;;;21.47;69.46;98581.47;4993411;28;102746;-59
2023/07/31 02:18:11;;;;;;;3.05;1.80;;;;;;;21.46;69.50;98587.84;4996012;28;102758;-59
2023/07/31 02:20:39;;;;;;;1.98;1.42;;;;;;;21.71;68.69;98575.81;4997604;28;103263;-60
2023/07/31 02:23:07;;;;;;;3.35;1.58;;;;;;;21.34;69.66;98582.06;5000020;28;103088;-59
2023/07/31 02:25:35;;;;;;;2.45;1.65;;;;;;;21.18;70.44;98569.63;4994871;28;102760;-65
2023/07/31 02:28:04;;;;;;;2.78;1.48;;;;;;;21.36;69.77;98572.81;4999810;28;102840;-65
2023/07/31 02:30:33;;;;;;;3.60;1.70;;;;;;;21.17;69.96;98565.25;5002156;28;104313;-64
2023/07/31 02:33:01;;;;;;;4.45;1.70;;;;;;;21.22;70.43;98575.47;4996151;28;103410;-65
2023/07/31 02:35:30;;;;;;;3.45;1.70;;;;;;;21.09;70.60;98562.63;4999949;28;102874;-66
2023/07/31 02:37:59;;;;;;;3.03;1.80;;;;;;;21.17;69.83;98572.47;4996762;28;102744;-64
2023/07/31 02:40:27;;;;;;;3.08;1.55;;;;;;;21.26;69.74;98566.84;5032565;27;104165;-65
2023/07/31 02:42:55;;;;;;;2.97;1.63;;;;;;;20.83;70.92;98559.44;4999153;28;104413;-65
2023/07/31 02:45:24;;;;;;;4.30;1.95;;;;;;;20.73;70.74;98558.84;4999643;28;102791;-64
2023/07/31 02:47:53;;;;;;;2.17;1.60;;;;;;;21.26;69.86;98556.13;4997250;28;102810;-64
2023/07/31 02:50:21;;;;;;;2.58;1.58;;;;;;;21.34;69.73;98545.28;5000714;28;104510;-59
2023/07/31 02:52:53;;;;;;;1.90;1.30;;;;;;;21.73;68.02;98546.91;4993000;28;104242;-59
2023/07/31 02:55:21;;;;;;;2.80;1.50;;;;;;;21.35;69.01;98552.34;4998287;28;103003;-59
2023/07/31 02:57:49;;;;;;;3.03;1.47;;;;;;;21.57;68.68;98547.09;4998132;28;104050;-59
2023/07/31 03:00:21;;;;;;;3.17;1.85;;;;;;;21.06;69.84;98548.69;4995456;28;103212;-59
2023/07/31 03:02:49;;;;;;;2.45;1.42;;;;;;;21.35;69.19;98541.59;4994074;28;103390;-60
2023/07/31 03:05:18;;;;;;;2.77;1.60;;;;;;;21.01;70.07;98541.19;4998033;28;102680;-60
2023/07/31 03:07:46;;;;;;;2.73;1.60;;;;;;;21.03;70.48;98547.22;4996134;28;104115;-60
2023/07/31 03:10:17;;;;;;;4.15;1.92;;;;;;;21.10;69.77;98550.88;4992971;28;104307;-59
2023/07/31 03:12:48;;;;;;;2.42;1.55;;;;;;;21.26;68.83;98558.81;4996719;28;103263;-61
2023/07/31 03:15:18;;;;;;;3.33;1.70;;;;;;;21.08;70.21;98563.63;4994326;28;103593;-59
2023/07/31 03:17:49;;;;;;;4.45;1.75;;;;;;;21.38;69.35;98554.66;4994274;28;102702;-60
2023/07/31 03:20:17;;;;;;;2.88;1.60;;;;;;;21.23;69.40;98556.47;4993575;28;104000;-61
2023/07/31 03:22:49;;;;;;;3.38;1.80;;;;;;;21.31;69.44;98548.34;4996641;28;103167;-59
2023/07/31 03:25:21;;;;;;;2.20;1.50;;;;;;;21.53;68.77;98551.16;4996462;28;102945;-59
2023/07/31 03:27:50;;;;;;;2.60;1.73;;;;;;;21.43;68.95;98550.59;4996584;27;102742;-59
2023/07/31 03:30:18;;;;;;;3.67;1.90;;;;;;;21.18;69.92;98553.50;4998592;28;103317;-59
2023/07/31 03:32:47;;;;;;;3.72;1.83;;;;;;;21.19;69.16;98549.78;4993978;28;103273;-59
2023/07/31 03:35:15;;;;;;;2.58;1.75;;;;;;;21.22;69.22;98554.78;4995748;28;102851;-59
2023/07/31 03:37:44;;;;;;;4.73;2.10;;;;;;;20.51;71.41;98556.97;4998568;28;103971;-59
2023/07/31 03:40:14;;;;;;;3.70;1.77;;;;;;;20.72;71.42;98557.16;4992292;28;103182;-59
2023/07/31 03:42:45;;;;;;;3.13;1.70;;;;;;;20.76;71.33;98563.88;4997726;28;104458;-58
2023/07/31 03:45:14;;;;;;;4.97;1.60;;;;;;;21.09;70.00;98557.28;4997309;28;102638;-64
2023/07/31 03:47:42;;;;;;;2.37;1.67;;;;;;;21.29;69.19;98550.38;4998820;28;104266;-64
2023/07/31 03:50:11;;;;;;;2.60;1.65;;;;;;;21.59;68.01;98548.56;5027892;27;103930;-59
2023/07/31 03:52:40;;;;;;;2.10;1.77;;;;;;;21.10;69.61;98550.88;4993633;28;103101;-59
2023/07/31 03:55:09;;;;;;;2.40;1.35;;;;;;;21.37;68.59;98563.72;4989901;28;102845;-59
2023/07/31 03:57:38;;;;;;;1.90;1.33;;;;;;;21.54;67.63;98558.19;4994142;28;102891;-59
2023/07/31 04:00:09;;;;;;;4.75;1.75;;;;;;;21.54;67.68;98559.03;4993045;28;104651;-59
2023/07/31 04:02:42;;;;;;;3.50;1.70;;;;;;;21.45;67.81;98559.28;4999518;28;104299;-60
2023/07/31 04:05:12;;;;;;;1.90;1.48;;;;;;;21.84;66.73;98549.13;4998184;28;102663;-64
2023/07/31 04:07:41;;;;;;;2.67;1.60;;;;;;;21.81;67.02;98552.22;4999079;28;103363;-64
2023/07/31 04:10:10;;;;;;;2.93;1.57;;;;;;;21.71;67.36;98548.94;4996163;28;104246;-63
2023/07/31 04:12:41;;;;;;;2.47;1.70;;;;;;;21.53;67.49;98546.59;4995486;28;103088;-59
2023/07/31 04:15:12;;;;;;;3.23;1.70;;;;;;;21.67;67.37;98548.47;4995702;28;102762;-59
2023/07/31 04:17:40;;;;;;;2.70;1.65;;;;;;;21.78;66.39;98549.88;4997077;28;104221;-60
2023/07/31 04:20:10;;;;;;;4.05;1.70;;;;;;;21.59;67.28;98539.66;4991670;28;103264;-60
2023/07/31 04:22:39;;;;;;;2.33;1.67;;;;;;;21.85;66.60;98548.13;4990661;28;103249;-60
2023/07/31 04:25:09;;;;;;;2.28;1.40;;;;;;;21.86;66.61;98542.56;4997353;28;102896;-60
2023/07/31 04:27:37;;;;;;;3.03;1.75;;;;;;;21.62;66.86;98544.66;4997204;27;103965;-60
2023/07/31 04:30:08;;;;;;;2.05;1.50;;;;;;;21.84;66.61;98538.38;4990878;28;104169;-60
2023/07/31 04:32:38;;;;;;;1.95;1.60;;;;;;;22.07;66.01;98536.44;4986252;28;103352;-60
2023/07/31 04:35:08;;;;;;;5.07;2.20;;;;;;;21.49;67.55;98549.84;5002243;28;102569;-64
2023/07/31 04:37:38;;;;;;;3.60;1.88;;;;;;;21.74;66.62;98533.28;4999001;28;104242;-65
2023/07/31 04:40:08;;;;;;;3.97;2.08;;;;;;;21.65;66.85;98533.56;4997187;28;104294;-64
2023/07/31 04:42:37;;;;;;;2.80;1.58;;;;;;;21.87;66.57;98538.03;4996160;28;103262;-64
2023/07/31 04:45:09;;;;;;;3.38;1.80;;;;;;;21.70;67.34;98539.19;4999424;28;102934;-65
2023/07/31 04:47:40;;;;;;;4.05;1.80;;;;;;;22.03;66.36;98548.63;4999540;28;102659;-64
2023/07/31 04:50:10;;;;;;;2.58;1.52;;;;;;;21.90;66.78;98543.88;5000186;28;103146;-64
2023/07/31 04:52:40;;;;;;;3.78;1.77;;;;;;;21.78;66.57;98544.50;4996832;28;103201;-64
2023/07/31 04:55:10;;;;;;;4.33;1.90;;;;;;;21.82;66.97;98540.41;5000998;28;102848;-64
2023/07/31 04:57:39;;;;;;;2.60;1.88;;;;;;;21.58;67.53;98536.16;4994286;28;102667;-64
2023/07/31 05:00:09;;;;;;;3.50;1.65;;;;;;;21.91;66.72;98539.34;4997639;28;103367;-64
2023/07/31 05:02:39;;;;;;;2.97;1.88;;;;;;;21.87;66.88;98543.41;4997846;28;103188;-65
2023/07/31 05:05:09;;;;;;;3.35;1.50;;;;;;;22.03;66.01;98537.03;4998602;28;102671;-65
2023/07/31 05:07:38;;;;;;;2.20;1.50;;;;;;;22.54;65.03;98527.88;4999784;28;102950;-65
2023/07/31 05:10:08;;;;;;;3.67;1.83;;;;;;;22.12;65.95;98531.31;4999964;28;103366;-64
2023/07/31 05:12:38;;;;;;;3.70;1.88;;;;;;;22.35;65.22;98526.66;4991356;28;105443;-64
2023/07/31 05:15:07;;;;;;;4.15;1.60;;;;;;;22.11;65.92;98529.69;4995814;28;102671;-64
2023/07/31 05:17:47;;;;;;;2.90;1.75;;;;;;;22.34;65.75;98519.59;4995047;28;104228;-64
2023/07/31 05:20:18;;;;;;;4.65;1.80;;;;;;;22.02;66.04;98524.59;4993544;28;103106;-64
2023/07/31 05:22:48;;;;;;;3.67;1.77;;;;;;;21.96;66.27;98528.84;4987949;28;102999;-64
2023/07/31 05:25:17;;;;;;;2.13;1.65;;;;;;;21.77;66.71;98522.16;4986311;28;102752;-64
2023/07/31 05:27:48;;;;;;;3.25;1.95;;;;;;;22.41;65.20;98533.97;4995371;28;103889;-64
2023/07/31 05:30:18;;;;;;;3.30;1.83;;;;;;;21.83;66.96;98528.66;4995430;28;103080;-64
2023/07/31 05:32:49;;;;;;;3.42;1.90;;;;;;;21.83;67.00;98536.72;4997813;28;104729;-64
2023/07/31 05:35:21;;;;;;;3.77;2.00;;;;;;;21.91;66.97;98534.81;4999976;28;102711;-63
2023/07/31 05:37:51;;;;;;;3.55;1.95;;;;;;;22.00;67.03;98532.00;4996225;28;102867;-64
2023/07/31 05:40:21;;;;;;;5.60;1.97;;;;;;;21.67;67.53;98526.16;4988874;28;103227;-64
2023/07/31 05:42:50;;;;;;;3.22;1.73;;;;;;;21.99;66.54;98531.16;4989373;28;104335;-60
2023/07/31 05:45:20;;;;;;;3.43;2.00;;;;;;;21.95;67.04;98519.13;4992218;28;102913;-59
2023/07/31 05:47:51;;;;;;;2.65;1.85;;;;;;;22.25;66.87;98523.44;5021056;27;102806;-59
2023/07/31 05:50:21;;;;;;;3.47;2.15;;;;;;;22.05;67.59;98529.59;4991862;28;103203;-60
2023/07/31 05:52:51;;;;;;;3.10;1.80;;;;;;;22.41;66.24;98525.91;4994697;28;104263;-60
2023/07/31 05:55:22;;;;;;;3.73;2.03;;;;;;;21.84;67.22;98516.84;4994559;28;102856;-60
2023/07/31 05:57:55;;;;;;;3.40;1.83;;;;;;;22.06;66.48;98520.50;4988679;28;104498;-60
2023/07/31 06:00:29;;;;;;;2.58;2.00;;;;;;;22.89;64.63;98528.91;4999043;28;103144;-59
2023/07/31 06:03:02;;;;;;;3.40;1.75;;;;;;;22.60;65.29;98529.03;4994776;28;102990;-60
2023/07/31 06:05:32;;;;;;;2.90;1.85;;;;;;;23.03;64.09;98519.94;4989649;28;102750;-59
2023/07/31 06:08:03;;;;;;;3.20;2.00;;;;;;;23.02;64.40;98524.47;5001112;28;102649;-60
2023/07/31 06:10:36;;;;;;;3.50;1.70;;;;;;;23.16;63.74;98524.63;4994052;28;104054;-64
2023/07/31 06:13:09;;;;;;;3.57;1.90;;;;;;;23.20;62.64;98531.25;4996184;28;103414;-64
2023/07/31 06:15:47;;;;;;;3.95;1.50;;;;;;;23.59;63.32;98523.50;5002843;28;102808;-66
2023/07/31 06:18:22;;;;;;;3.97;2.00;;;;;;;23.93;62.21;98522.66;5000190;28;104113;-65
2023/07/31 06:20:53;;;;;;;2.60;1.63;;;;;;;24.09;62.41;98523.19;5004636;28;103038;-66
2023/07/31 06:23:25;;;;;;;4.60;2.03;;;;;;;23.72;62.18;98520.06;5000101;28;103035;-66
2023/07/31 06:25:56;;;;;;;3.33;1.73;;;;;;;24.09;61.16;98523.19;5005079;28;102722;-66
2023/07/31 06:28:31;;;;;;;3.97;1.90;;;;;;;23.81;61.43;98529.66;5010384;28;102681;-66
2023/07/31 06:31:03;;;;;;;3.45;2.05;;;;;;;24.12;60.78;98522.81;4999839;28;103090;-66
2023/07/31 06:33:38;;;;;;;5.53;2.10;;;;;;;24.17;59.84;98517.63;5003838;28;103256;-62
2023/07/31 06:36:12;;;;;;;3.33;2.10;;;;;;;24.11;60.36;98514.91;4997917;28;102897;-61
2023/07/31 06:38:47;;;;;;;4.63;2.30;;;;;;;23.94;60.12;98518.94;4989685;28;102808;-61
2023/07/31 06:41:20;;;;;;;3.83;1.95;;;;;;;23.78;60.52;98527.34;5012082;27;104029;-61
2023/07/31 06:43:53;;;;;;;4.37;1.70;;;;;;;24.22;59.03;98522.44;5000807;28;103315;-64
2023/07/31 06:46:24;;;;;;;4.75;1.83;;;;;;;24.18;59.88;98523.88;5001599;28;102704;-61
2023/07/31 06:49:21;;;;;;;5.25;1.80;;;;;;;24.51;59.24;98527.50;5003469;28;103018;-60
2023/07/31 06:52:14;;;;;;;3.87;1.90;;;;;;;24.84;58.20;98532.19;5033248;27;104157;-62
2023/07/31 06:55:07;;;;;;;6.57;2.25;;;;;;;24.93;57.88;98526.38;5000391;28;103062;-60
2023/07/31 06:57:56;;;;;;;5.18;2.05;;;;;;;24.54;57.96;98531.66;5010770;28;102608;-62
2023/07/31 07:00:36;;;;;;;4.70;2.25;;;;;;;24.56;57.01;98525.03;5000829;28;102836;-62
2023/07/31 07:03:15;;;;;;;4.38;2.08;;;;;;;24.95;57.75;98534.28;5000874;28;103079;-64
2023/07/31 07:05:54;;;;;;;3.70;1.90;;;;;;;24.56;58.50;98525.03;5006219;28;103073;-64
2023/07/31 07:08:32;;;;;;;3.38;1.75;;;;;;;25.13;57.40;98523.69;5003986;28;102671;-64
2023/07/31 07:11:11;;;;;;;4.77;2.20;;;;;;;24.68;56.92;98527.97;5001410;28;103951;-64
2023/07/31 07:13:43;;;;;;;5.22;2.00;;;;;;;24.53;57.62;98508.41;4996282;28;103969;-64
2023/07/31 07:16:16;;;;;;;3.70;2.30;;;;;;;25.25;56.14;98522.03;4996058;28;103055;-61
2023/07/31 07:18:53;;;;;;;4.07;1.92;;;;;;;25.78;55.64;98526.38;4997344;28;102706;-61
2023/07/31 07:21:39;;;;;;;4.95;2.00;;;;;;;24.90;57.64;98520.56;4972695;27;103133;-60
2023/07/31 07:24:17;;;;;;;2.90;2.03;;;;;;;25.64;56.26;98508.50;4998848;28;104109;-61
2023/07/31 07:26:52;;;;;;;3.22;2.00;;;;;;;25.38;55.77;98505.81;5018816;27;104132;-60
2023/07/31 07:29:36;;;;;;;5.00;2.20;;;;;;;25.21;56.95;98499.16;5001774;28;102903;-60
2023/07/31 07:32:15;;;;;;;4.28;1.85;;;;;;;25.04;55.87;98501.44;5005399;28;102786;-64
2023/07/31 07:34:53;;;;;;;5.72;2.30;;;;;;;25.15;56.16;98500.00;4998753;28;103520;-61
2023/07/31 07:37:33;;;;;;;4.60;2.10;;;;;;;24.86;57.27;98498.53;5000758;28;103141;-61
2023/07/31 07:40:08;;;;;;;3.83;2.00;;;;;;;25.18;56.74;98513.91;5003546;28;103160;-61
2023/07/31 07:42:42;;;;;;;3.17;2.00;;;;;;;25.74;55.56;98503.47;5001547;28;102678;-64
2023/07/31 07:45:18;;;;;;;4.50;2.30;;;;;;;25.03;57.27;98504.38;4995158;28;103041;-61
2023/07/31 07:47:55;;;;;;;4.23;2.23;;;;;;;25.00;56.33;98502.06;5001905;28;103097;-61
2023/07/31 07:50:41;;;;;;;4.55;2.05;;;;;;;25.55;55.94;98495.41;5001574;28;102967;-61
2023/07/31 07:53:39;;;;;;;3.50;1.80;;;;;;;26.49;54.67;98502.00;5003868;28;102734;-61
2023/07/31 07:56:23;;;;;;;3.50;2.13;;;;;;;26.52;53.73;98496.16;5001973;28;104194;-64
2023/07/31 07:59:01;;;;;;;5.30;2.22;;;;;;;26.07;54.54;98494.44;5006758;28;103037;-61
2023/07/31 08:02:16;;;;;;;4.43;2.10;;;;;;;26.44;53.11;98493.69;5001028;28;102849;-62
2023/07/31 08:05:36;;;;;;;4.72;2.20;;;;;;;26.76;52.77;98489.94;4993832;28;103972;-64
2023/07/31 08:08:09;;;;;;;4.90;2.30;;;;;;;26.63;52.30;98487.31;5003093;28;103074;-64
2023/07/31 08:10:56;;;;;;;3.53;2.10;;;;;;;26.34;53.01;98490.59;4995649;28;103400;-64
2023/07/31 08:13:43;;;;;;;4.78;2.35;;;;;;;25.55;54.61;98488.13;5006067;28;102905;-64
2023/07/31 08:16:50;;;;;;;4.20;2.05;;;;;;;27.02;51.90;98487.06;5004725;28;102889;-63
2023/07/31 08:19:28;;;;;;;4.13;2.00;;;;;;;28.04;50.08;98486.50;5005381;28;103179;-64
2023/07/31 08:22:35;;;;;;;3.90;2.37;;;;;;;28.12;49.62;98478.09;5004631;28;102971;-62
2023/07/31 08:25:17;;;;;;;3.80;2.40;;;;;;;28.00;49.58;98477.16;5006360;28;102912;-64
2023/07/31 08:35:10;;;;;;;4.10;2.10;;;;;;;28.56;48.55;98470.59;5003521;28;103219;-64
2023/07/31 08:38:02;;;;;;;5.03;2.25;;;;;;;28.19;48.53;98467.97;5009580;28;102640;-63
2023/07/31 08:40:44;;;;;;;3.40;2.33;;;;;;;27.79;49.97;98464.03;5000145;28;103085;-64
2023/07/31 08:46:58;;;;;;;4.60;2.30;;;;;;;28.52;48.71;98445.75;4943701;28;103213;-61
2023/07/31 08:50:14;;;;;;;3.63;2.45;;;;;;;28.21;48.32;98453.34;5003198;28;103088;-62
2023/07/31 08:53:19;;;;;;;4.70;2.43;;;;;;;27.97;49.32;98469.47;5001241;28;102850;-62
2023/07/31 08:59:35;;;;;;;4.63;2.20;;;;;;;29.57;46.52;98460.41;5004394;28;103010;-62
2023/07/31 09:02:21;;;;;;;5.68;2.45;;;;;;;28.73;48.16;98458.03;5000400;28;103002;-64
2023/07/31 09:06:16;;;;;;;3.83;2.30;;;;;;;29.97;46.13;98438.72;4999400;28;102764;-61
2023/07/31 09:09:00;;;;;;;3.65;2.38;;;;;;;29.48;46.49;98444.66;5013892;27;103117;-64
2023/07/31 09:11:52;;;;;;;3.72;2.08;;;;;;;29.64;47.75;98438.50;5003887;28;103507;-61
2023/07/31 09:14:31;;;;;;;5.00;2.43;;;;;;;29.00;47.31;98437.50;5001440;28;102649;-64
2023/07/31 09:21:11;;;;;;;4.07;2.10;;;;;;;30.13;46.08;98443.38;4910828;28;103151;-65
2023/07/31 09:23:52;;;;;;;3.33;2.15;;;;;;;27.88;48.94;98440.97;4999758;28;102983;-64
2023/07/31 09:30:11;;;;;;;3.90;2.45;;;;;;;30.23;46.66;98440.03;5006923;28;103108;-61
2023/07/31 09:33:13;;;;;;;4.33;2.50;;;;;;;29.66;47.58;98437.19;4999967;28;103003;-62
2023/07/31 09:35:52;;;;;;;4.83;2.40;;;;;;;28.52;48.23;98443.03;5018109;27;103776;-60
2023/07/31 09:38:30;;;;;;;4.07;2.38;;;;;;;28.36;48.85;98434.72;5003209;28;102720;-60
2023/07/31 09:41:08;;;;;;;4.07;2.20;;;;;;;29.10;48.43;98420.63;5014196;27;103002;-63
2023/07/31 09:43:55;;;;;;;5.10;2.37;;;;;;;28.48;48.81;98427.44;5003697;28;103189;-60
2023/07/31 09:46:37;;;;;;;3.67;2.20;;;;;;;28.34;48.96;98415.94;5000848;28;103171;-64
2023/07/31 09:49:35;;;;;;;4.78;2.25;;;;;;;28.85;47.58;98401.81;5009934;28;102715;-63
2023/07/31 09:52:18;;;;;;;3.90;2.30;;;;;;;30.12;47.39;98391.88;5007686;28;103592;-60
2023/07/31 09:58:44;;;;;;;6.20;2.67;;;;;;;29.67;46.43;98383.59;4935172;28;103310;-62
2023/07/31 10:01:27;;;;;;;4.93;2.40;;;;;;;29.97;47.70;98381.53;4943957;28;103081;-61
2023/07/31 10:04:10;;;;;;;4.80;2.80;;;;;;;28.25;48.15;98390.16;4994782;28;103024;-61
2023/07/31 10:07:12;;;;;;;3.90;2.30;;;;;;;28.26;48.87;98396.44;5000594;28;103067;-62
2023/07/31 10:10:20;;;;;;;3.63;2.17;;;;;;;30.99;44.72;98383.13;5004078;28;103082;-63
2023/07/31 10:12:58;;;;;;;4.80;2.40;;;;;;;31.33;45.54;98372.16;5002654;28;103012;-63
2023/07/31 10:15:30;;;;;;;4.37;2.37;;;;;;;29.99;46.91;98371.19;4998980;28;103876;-63
2023/07/31 10:18:15;;;;;;;3.33;2.25;;;;;;;29.67;46.27;98365.34;5006351;28;103375;-63
2023/07/31 10:21:04;;;;;;;3.45;2.40;;;;;;;30.02;46.67;98369.88;5004635;28;103068;-61
2023/07/31 10:23:50;;;;;;;7.32;2.60;;;;;;;30.15;45.82;98366.88;4995485;28;102916;-61
2023/07/31 10:26:27;;;;;;;5.53;2.77;;;;;;;28.92;47.80;98363.63;5015559;27;102891;-64
2023/07/31 10:29:02;;;;;;;5.82;2.35;;;;;;;29.30;47.38;98373.00;4998723;28;103006;-64
2023/07/31 10:32:06;;;;;;;4.65;2.50;;;;;;;30.26;45.53;98366.81;4999636;28;103084;-62
2023/07/31 10:34:56;;;;;;;6.20;2.40;;;;;;;30.03;45.51;98356.03;5004560;28;102724;-63
2023/07/31 10:37:47;;;;;;;4.05;2.40;;;;;;;29.77;45.97;98349.25;5001290;28;104155;-63
2023/07/31 10:40:27;;;;;;;5.43;2.35;;;;;;;30.13;46.94;98345.31;4996570;28;103326;-61
2023/07/31 10:43:38;;;;;;;3.33;2.22;;;;;;;30.93;44.88;98358.75;5003790;28;103067;-64
2023/07/31 10:46:17;;;;;;;4.00;2.55;;;;;;;30.00;46.59;98364.69;5001008;28;102929;-64
2023/07/31 10:51:57;;;;;;;3.37;2.67;;;;;;;31.68;43.71;98348.09;5003316;28;103342;-61
2023/07/31 10:54:35;;;;;;;5.18;2.70;;;;;;;30.94;45.11;98346.75;5003542;28;103329;-64
2023/07/31 10:57:54;;;;;;;4.55;3.15;;;;;;;31.01;43.89;98350.16;5005536;28;102692;-64
2023/07/31 11:00:36;;;;;;;4.50;2.60;;;;;;;30.60;44.73;98345.91;5005288;28;103875;-64
2023/07/31 11:03:20;;;;;;;4.68;2.50;;;;;;;30.21;44.95;98344.94;4998105;28;103053;-64
2023/07/31 11:06:05;;;;;;;3.40;2.20;;;;;;;31.33;44.14;98333.94;5004285;28;103073;-61
2023/07/31 11:08:46;;;;;;;3.83;2.10;;;;;;;30.57;43.77;98329.25;5006172;28;102849;-61
2023/07/31 11:11:25;;;;;;;3.50;2.57;;;;;;;29.73;45.88;98328.16;5006363;28;102668;-61
2023/07/31 11:14:13;;;;;;;4.63;2.30;;;;;;;29.95;45.24;98342.81;5005861;28;103011;-62
2023/07/31 11:16:46;;;;;;;5.18;2.60;;;;;;;29.81;45.05;98330.56;4995708;28;103060;-62
2023/07/31 11:19:24;;;;;;;3.75;2.53;;;;;;;30.77;44.54;98330.38;4997122;28;102652;-61
2023/07/31 11:21:58;;;;;;;4.87;2.87;;;;;;;31.04;45.01;98325.09;4994269;28;103969;-62
2023/07/31 11:24:30;;;;;;;4.82;2.80;;;;;;;30.09;45.26;98327.81;4992844;28;103272;-61
2023/07/31 11:27:18;;;;;;;3.78;2.70;;;;;;;29.89;44.93;98327.44;4998333;28;103152;-61
2023/07/31 11:30:02;;;;;;;4.03;2.53;;;;;;;30.38;45.82;98321.28;5002037;28;102863;-61
2023/07/31 11:32:34;;;;;;;4.80;2.53;;;;;;;30.21;45.17;98319.56;4998684;28;102854;-62
2023/07/31 11:35:08;;;;;;;3.43;2.30;;;;;;;30.90;44.28;98324.59;4991711;28;103450;-62
2023/07/31 11:37:45;;;;;;;4.20;2.80;;;;;;;29.98;45.42;98320.53;4997446;28;103000;-61
2023/07/31 11:40:16;;;;;;;3.70;2.60;;;;;;;29.68;46.30;98322.63;5000557;28;102705;-61
2023/07/31 11:42:53;;;;;;;4.97;2.43;;;;;;;29.78;45.87;98314.69;5001338;28;102764;-62
2023/07/31 11:45:32;;;;;;;4.13;2.45;;;;;;;29.62;45.92;98307.25;4994908;28;102998;-61
2023/07/31 11:48:06;;;;;;;3.07;2.33;;;;;;;29.42;46.50;98309.59;4993268;28;105151;-62
2023/07/31 11:50:50;;;;;;;4.13;2.50;;;;;;;29.55;45.89;98304.69;5000998;28;103051;-62
2023/07/31 11:53:54;;;;;;;4.67;2.70;;;;;;;29.80;45.37;98309.84;5004438;28;102729;-63
2023/07/31 11:56:38;;;;;;;5.85;3.05;;;;;;;30.00;45.70;98293.91;4999958;28;103274;-61
2023/07/31 11:59:15;;;;;;;4.35;2.42;;;;;;;29.95;45.77;98288.38;4999037;28;103172;-62
2023/07/31 12:02:09;;;;;;;3.92;2.45;;;;;;;28.84;47.35;98279.72;4995600;28;102730;-62
2023/07/31 12:05:06;;;;;;;4.93;2.90;;;;;;;30.10;46.09;98279.63;5001607;28;103519;-63
2023/07/31 12:08:02;;;;;;;3.03;2.25;;;;;;;29.82;45.59;98283.19;5004001;28;103241;-64
2023/07/31 12:10:37;;;;;;;3.53;2.55;;;;;;;30.09;46.54;98280.72;4994205;28;103060;-62
2023/07/31 12:13:14;;;;;;;3.35;2.60;;;;;;;29.90;46.86;98280.06;5010068;27;102799;-62
2023/07/31 12:15:48;;;;;;;3.77;2.37;;;;;;;30.70;45.67;98271.66;4994259;28;102818;-61
2023/07/31 12:18:24;;;;;;;3.50;2.60;;;;;;;29.76;46.93;98275.97;4993726;28;103400;-62
2023/07/31 12:20:59;;;;;;;4.03;2.50;;;;;;;29.86;47.10;98263.41;4993654;28;104246;-62
2023/07/31 12:23:34;;;;;;;4.88;2.70;;;;;;;29.74;47.56;98278.13;4996745;28;102645;-62
2023/07/31 12:26:08;;;;;;;5.15;2.50;;;;;;;28.99;48.61;98283.63;4997383;28;102737;-62
2023/07/31 12:29:03;;;;;;;5.50;2.72;;;;;;;29.94;46.65;98264.09;5016931;27;103190;-62
2023/07/31 12:31:45;;;;;;;5.05;2.78;;;;;;;30.42;46.33;98267.97;4996865;28;102996;-61
2023/07/31 12:34:25;;;;;;;3.95;2.58;;;;;;;30.51;44.94;98256.66;4995300;28;102838;-62